sensor_id;sensor_type;location;lat;lon;timestamp;temperature;humidity
55213;DHT22;41083;52.932;6.674;2022-07-30T00:01:24;15.40;99.90
55213;DHT22;41083;52.932;6.674;2022-07-30T00:03:52;15.30;99.90
55213;DHT22;41083;52.932;6.674;2022-07-30T00:06:18;15.30;99.90
55213;DHT22;41083;52.932;6.674;2022-07-30T00:08:43;15.20;99.90
55213;DHT22;41083;52.932;6.674;2022-07-30T00:11:09;15.20;99.90
55213;DHT22;41083;52.932;6.674;2022-07-30T00:13:36;15.10;99.90
55213;DHT22;41083;52.932;6.674;2022-07-30T00:16:02;15.10;99.90
55213;DHT22;41083;52.932;6.674;2022-07-30T00:18:27;15.20;99.90
55213;DHT22;41083;52.932;6.674;2022-07-30T00:20:53;15.20;99.90
55213;DHT22;41083;52.932;6.674;2022-07-30T00:23:18;15.20;99.90
55213;DHT22;41083;52.932;6.674;2022-07-30T00:25:44;15.20;99.90
55213;DHT22;41083;52.932;6.674;2022-07-30T00:28:10;15.00;99.90
55213;DHT22;41083;52.932;6.674;2022-07-30T00:30:35;15.10;99.90
55213;DHT22;41083;52.932;6.674;2022-07-30T00:33:02;15.10;99.90
55213;DHT22;41083;52.932;6.674;2022-07-30T00:35:28;15.10;99.90
55213;DHT22;41083;52.932;6.674;2022-07-30T00:37:54;15.10;99.90
55213;DHT22;41083;52.932;6.674;2022-07-30T00:40:19;15.10;99.90
55213;DHT22;41083;52.932;6.674;2022-07-30T00:42:46;15.10;99.90
55213;DHT22;41083;52.932;6.674;2022-07-30T00:45:13;15.10;99.90
55213;DHT22;41083;52.932;6.674;2022-07-30T00:47:39;15.00;99.90
55213;DHT22;41083;52.932;6.674;2022-07-30T00:50:06;15.00;99.90
55213;DHT22;41083;52.932;6.674;2022-07-30T00:52:33;15.00;99.90
55213;DHT22;41083;52.932;6.674;2022-07-30T00:54:59;14.90;99.90
55213;DHT22;41083;52.932;6.674;2022-07-30T00:57:26;14.90;99.90
55213;DHT22;41083;52.932;6.674;2022-07-30T00:59:52;14.90;99.90
55213;DHT22;41083;52.932;6.674;2022-07-30T01:02:17;14.80;99.90
55213;DHT22;41083;52.932;6.674;2022-07-30T01:04:43;14.80;99.90
55213;DHT22;41083;52.932;6.674;2022-07-30T01:07:09;14.80;99.90
55213;DHT22;41083;52.932;6.674;2022-07-30T01:09:35;14.80;99.90
55213;DHT22;41083;52.932;6.674;2022-07-30T01:12:01;14.80;99.90
55213;DHT22;41083;52.932;6.674;2022-07-30T01:14:27;14.70;99.90
55213;DHT22;41083;52.932;6.674;2022-07-30T01:16:53;14.70;99.90
55213;DHT22;41083;52.932;6.674;2022-07-30T01:19:23;14.70;99.90
55213;DHT22;41083;52.932;6.674;2022-07-30T01:22:14;14.70;99.90
55213;DHT22;41083;52.932;6.674;2022-07-30T01:24:43;14.70;99.90
55213;DHT22;41083;52.932;6.674;2022-07-30T01:27:13;14.60;99.90
55213;DHT22;41083;52.932;6.674;2022-07-30T01:29:40;14.70;99.90
55213;DHT22;41083;52.932;6.674;2022-07-30T01:32:08;14.60;99.90
55213;DHT22;41083;52.932;6.674;2022-07-30T01:34:36;14.60;99.90
55213;DHT22;41083;52.932;6.674;2022-07-30T01:37:04;14.50;99.90
55213;DHT22;41083;52.932;6.674;2022-07-30T01:39:31;14.50;99.90
55213;DHT22;41083;52.932;6.674;2022-07-30T01:41:57;14.50;99.90
55213;DHT22;41083;52.932;6.674;2022-07-30T01:44:25;14.40;99.90
55213;DHT22;41083;52.932;6.674;2022-07-30T01:46:52;14.40;99.90
55213;DHT22;41083;52.932;6.674;2022-07-30T01:49:18;14.40;99.90
55213;DHT22;41083;52.932;6.674;2022-07-30T01:51:47;14.40;99.90
55213;DHT22;41083;52.932;6.674;2022-07-30T01:54:13;14.40;99.90
55213;DHT22;41083;52.932;6.674;2022-07-30T01:56:41;14.30;99.90
55213;DHT22;41083;52.932;6.674;2022-07-30T01:59:09;14.40;99.90
55213;DHT22;41083;52.932;6.674;2022-07-30T02:01:35;14.30;99.90
55213;DHT22;41083;52.932;6.674;2022-07-30T02:04:02;14.40;99.90
55213;DHT22;41083;52.932;6.674;2022-07-30T02:06:36;14.30;99.90
55213;DHT22;41083;52.932;6.674;2022-07-30T02:09:04;14.30;99.90
55213;DHT22;41083;52.932;6.674;2022-07-30T02:11:34;14.20;99.90
55213;DHT22;41083;52.932;6.674;2022-07-30T02:14:28;14.10;99.90
55213;DHT22;41083;52.932;6.674;2022-07-30T02:16:56;14.00;99.90
55213;DHT22;41083;52.932;6.674;2022-07-30T02:19:25;14.00;99.90
55213;DHT22;41083;52.932;6.674;2022-07-30T02:21:58;13.90;99.90
55213;DHT22;41083;52.932;6.674;2022-07-30T02:24:28;14.00;99.90
55213;DHT22;41083;52.932;6.674;2022-07-30T02:27:00;13.90;99.90
55213;DHT22;41083;52.932;6.674;2022-07-30T02:29:28;13.90;99.90
55213;DHT22;41083;52.932;6.674;2022-07-30T02:31:55;13.90;99.90
55213;DHT22;41083;52.932;6.674;2022-07-30T02:34:23;13.90;99.90
55213;DHT22;41083;52.932;6.674;2022-07-30T02:36:50;13.90;99.90
55213;DHT22;41083;52.932;6.674;2022-07-30T02:39:16;13.90;99.90
55213;DHT22;41083;52.932;6.674;2022-07-30T02:41:44;13.90;99.90
55213;DHT22;41083;52.932;6.674;2022-07-30T02:44:10;13.90;99.90
55213;DHT22;41083;52.932;6.674;2022-07-30T02:46:37;13.90;99.90
55213;DHT22;41083;52.932;6.674;2022-07-30T02:49:05;13.90;99.90
55213;DHT22;41083;52.932;6.674;2022-07-30T02:51:31;13.90;99.90
55213;DHT22;41083;52.932;6.674;2022-07-30T02:53:59;13.90;99.90
55213;DHT22;41083;52.932;6.674;2022-07-30T02:56:26;13.90;99.90
55213;DHT22;41083;52.932;6.674;2022-07-30T02:58:54;13.90;99.90
55213;DHT22;41083;52.932;6.674;2022-07-30T03:01:22;13.90;99.90
55213;DHT22;41083;52.932;6.674;2022-07-30T03:03:49;13.90;99.90
55213;DHT22;41083;52.932;6.674;2022-07-30T03:06:17;13.80;99.90
55213;DHT22;41083;52.932;6.674;2022-07-30T03:08:44;13.80;99.90
55213;DHT22;41083;52.932;6.674;2022-07-30T03:11:11;13.70;99.90
55213;DHT22;41083;52.932;6.674;2022-07-30T03:13:37;13.60;99.90
55213;DHT22;41083;52.932;6.674;2022-07-30T03:16:07;13.60;99.90
55213;DHT22;41083;52.932;6.674;2022-07-30T03:18:35;13.50;99.90
55213;DHT22;41083;52.932;6.674;2022-07-30T03:21:04;13.50;99.90
55213;DHT22;41083;52.932;6.674;2022-07-30T03:23:33;13.50;99.90
55213;DHT22;41083;52.932;6.674;2022-07-30T03:26:02;13.50;99.90
55213;DHT22;41083;52.932;6.674;2022-07-30T03:28:35;13.40;99.90
55213;DHT22;41083;52.932;6.674;2022-07-30T03:31:01;13.40;99.90
55213;DHT22;41083;52.932;6.674;2022-07-30T03:33:27;13.50;99.90
55213;DHT22;41083;52.932;6.674;2022-07-30T03:35:53;13.40;99.90
55213;DHT22;41083;52.932;6.674;2022-07-30T03:38:19;13.40;99.90
55213;DHT22;41083;52.932;6.674;2022-07-30T03:40:45;13.40;99.90
55213;DHT22;41083;52.932;6.674;2022-07-30T03:43:12;13.40;99.90
55213;DHT22;41083;52.932;6.674;2022-07-30T03:45:40;13.30;99.90
55213;DHT22;41083;52.932;6.674;2022-07-30T03:48:08;13.40;99.90
55213;DHT22;41083;52.932;6.674;2022-07-30T03:50:38;13.40;99.90
55213;DHT22;41083;52.932;6.674;2022-07-30T03:53:05;13.30;99.90
55213;DHT22;41083;52.932;6.674;2022-07-30T03:55:32;13.30;99.90
55213;DHT22;41083;52.932;6.674;2022-07-30T03:58:00;13.30;99.90
55213;DHT22;41083;52.932;6.674;2022-07-30T04:00:26;13.30;99.90
55213;DHT22;41083;52.932;6.674;2022-07-30T04:02:52;13.30;99.90
55213;DHT22;41083;52.932;6.674;2022-07-30T04:05:18;13.30;99.90
55213;DHT22;41083;52.932;6.674;2022-07-30T04:07:44;13.30;99.90
55213;DHT22;41083;52.932;6.674;2022-07-30T04:10:10;13.30;99.90
55213;DHT22;41083;52.932;6.674;2022-07-30T04:12:35;13.20;99.90
55213;DHT22;41083;52.932;6.674;2022-07-30T04:15:01;13.20;99.90
55213;DHT22;41083;52.932;6.674;2022-07-30T04:17:48;13.20;99.90
55213;DHT22;41083;52.932;6.674;2022-07-30T04:20:22;13.20;99.90
55213;DHT22;41083;52.932;6.674;2022-07-30T04:22:49;13.20;99.90
55213;DHT22;41083;52.932;6.674;2022-07-30T04:25:15;13.20;99.90
55213;DHT22;41083;52.932;6.674;2022-07-30T04:27:42;13.20;99.90
55213;DHT22;41083;52.932;6.674;2022-07-30T04:30:09;13.20;99.90
55213;DHT22;41083;52.932;6.674;2022-07-30T04:32:35;13.30;99.90
55213;DHT22;41083;52.932;6.674;2022-07-30T04:35:02;13.30;99.90
55213;DHT22;41083;52.932;6.674;2022-07-30T04:37:28;13.30;99.90
55213;DHT22;41083;52.932;6.674;2022-07-30T04:39:55;13.40;99.90
55213;DHT22;41083;52.932;6.674;2022-07-30T04:42:26;13.40;99.90
55213;DHT22;41083;52.932;6.674;2022-07-30T04:44:53;13.40;99.90
55213;DHT22;41083;52.932;6.674;2022-07-30T04:47:19;13.40;99.90
55213;DHT22;41083;52.932;6.674;2022-07-30T04:49:45;13.50;99.90
55213;DHT22;41083;52.932;6.674;2022-07-30T04:52:12;13.40;99.90
55213;DHT22;41083;52.932;6.674;2022-07-30T04:54:53;13.40;99.90
55213;DHT22;41083;52.932;6.674;2022-07-30T04:57:20;13.50;99.90
55213;DHT22;41083;52.932;6.674;2022-07-30T04:59:46;13.50;99.90
55213;DHT22;41083;52.932;6.674;2022-07-30T05:02:13;13.50;99.90
55213;DHT22;41083;52.932;6.674;2022-07-30T05:04:40;13.60;99.90
55213;DHT22;41083;52.932;6.674;2022-07-30T05:07:07;13.60;99.90
55213;DHT22;41083;52.932;6.674;2022-07-30T05:09:33;13.70;99.90
55213;DHT22;41083;52.932;6.674;2022-07-30T05:11:59;13.80;99.90
55213;DHT22;41083;52.932;6.674;2022-07-30T05:14:25;13.70;99.90
55213;DHT22;41083;52.932;6.674;2022-07-30T05:16:52;13.70;99.90
55213;DHT22;41083;52.932;6.674;2022-07-30T05:19:18;13.80;99.90
55213;DHT22;41083;52.932;6.674;2022-07-30T05:21:44;13.70;99.90
55213;DHT22;41083;52.932;6.674;2022-07-30T05:24:10;13.80;99.90
55213;DHT22;41083;52.932;6.674;2022-07-30T05:26:36;13.80;99.90
55213;DHT22;41083;52.932;6.674;2022-07-30T05:29:02;13.90;99.90
55213;DHT22;41083;52.932;6.674;2022-07-30T05:31:27;13.90;99.90
55213;DHT22;41083;52.932;6.674;2022-07-30T05:33:53;14.10;99.90
55213;DHT22;41083;52.932;6.674;2022-07-30T05:36:19;14.10;99.90
55213;DHT22;41083;52.932;6.674;2022-07-30T05:38:45;14.10;99.90
55213;DHT22;41083;52.932;6.674;2022-07-30T05:41:10;14.20;99.90
55213;DHT22;41083;52.932;6.674;2022-07-30T05:43:36;14.30;99.90
55213;DHT22;41083;52.932;6.674;2022-07-30T05:46:02;14.30;99.90
55213;DHT22;41083;52.932;6.674;2022-07-30T05:48:27;14.40;99.90
55213;DHT22;41083;52.932;6.674;2022-07-30T05:50:53;14.50;99.90
55213;DHT22;41083;52.932;6.674;2022-07-30T05:53:19;14.50;99.90
55213;DHT22;41083;52.932;6.674;2022-07-30T05:55:44;14.60;99.90
55213;DHT22;41083;52.932;6.674;2022-07-30T05:58:10;14.70;99.90
55213;DHT22;41083;52.932;6.674;2022-07-30T06:00:35;14.90;99.90
55213;DHT22;41083;52.932;6.674;2022-07-30T06:03:01;15.00;99.90
55213;DHT22;41083;52.932;6.674;2022-07-30T06:05:27;15.10;99.90
55213;DHT22;41083;52.932;6.674;2022-07-30T06:07:53;15.10;99.90
55213;DHT22;41083;52.932;6.674;2022-07-30T06:10:19;15.10;99.90
55213;DHT22;41083;52.932;6.674;2022-07-30T06:12:45;15.20;99.90
55213;DHT22;41083;52.932;6.674;2022-07-30T06:15:10;15.30;99.90
55213;DHT22;41083;52.932;6.674;2022-07-30T06:17:43;15.30;99.90
55213;DHT22;41083;52.932;6.674;2022-07-30T06:20:14;15.40;99.90
55213;DHT22;41083;52.932;6.674;2022-07-30T06:22:40;15.40;99.90
55213;DHT22;41083;52.932;6.674;2022-07-30T06:25:06;15.50;99.90
55213;DHT22;41083;52.932;6.674;2022-07-30T06:27:32;15.50;99.90
55213;DHT22;41083;52.932;6.674;2022-07-30T06:30:03;15.60;99.90
55213;DHT22;41083;52.932;6.674;2022-07-30T06:32:29;15.70;99.90
55213;DHT22;41083;52.932;6.674;2022-07-30T06:34:54;16.10;99.90
55213;DHT22;41083;52.932;6.674;2022-07-30T06:37:20;16.70;99.90
55213;DHT22;41083;52.932;6.674;2022-07-30T06:39:46;17.70;99.90
55213;DHT22;41083;52.932;6.674;2022-07-30T06:42:12;18.60;99.90
55213;DHT22;41083;52.932;6.674;2022-07-30T06:44:37;19.60;99.90
55213;DHT22;41083;52.932;6.674;2022-07-30T06:47:03;20.40;99.90
55213;DHT22;41083;52.932;6.674;2022-07-30T06:49:33;20.90;99.50
55213;DHT22;41083;52.932;6.674;2022-07-30T06:51:59;20.80;99.40
55213;DHT22;41083;52.932;6.674;2022-07-30T06:54:24;20.50;99.90
55213;DHT22;41083;52.932;6.674;2022-07-30T06:56:50;20.00;99.90
55213;DHT22;41083;52.932;6.674;2022-07-30T06:59:16;19.50;99.90
55213;DHT22;41083;52.932;6.674;2022-07-30T07:01:41;19.00;99.90
55213;DHT22;41083;52.932;6.674;2022-07-30T07:04:07;18.70;99.90
55213;DHT22;41083;52.932;6.674;2022-07-30T07:06:33;18.50;99.90
55213;DHT22;41083;52.932;6.674;2022-07-30T07:08:58;18.20;99.90
55213;DHT22;41083;52.932;6.674;2022-07-30T07:11:24;18.00;99.90
55213;DHT22;41083;52.932;6.674;2022-07-30T07:13:50;17.90;99.90
55213;DHT22;41083;52.932;6.674;2022-07-30T07:16:15;17.80;99.90
55213;DHT22;41083;52.932;6.674;2022-07-30T07:18:46;17.70;99.90
55213;DHT22;41083;52.932;6.674;2022-07-30T07:21:13;17.70;99.90
55213;DHT22;41083;52.932;6.674;2022-07-30T07:23:38;17.60;99.90
55213;DHT22;41083;52.932;6.674;2022-07-30T07:26:04;17.60;99.90
55213;DHT22;41083;52.932;6.674;2022-07-30T07:28:30;17.60;99.90
55213;DHT22;41083;52.932;6.674;2022-07-30T07:30:55;17.60;99.90
55213;DHT22;41083;52.932;6.674;2022-07-30T07:33:21;17.70;99.90
55213;DHT22;41083;52.932;6.674;2022-07-30T07:35:47;17.70;99.90
55213;DHT22;41083;52.932;6.674;2022-07-30T07:38:12;17.80;99.90
55213;DHT22;41083;52.932;6.674;2022-07-30T07:40:38;17.90;99.90
55213;DHT22;41083;52.932;6.674;2022-07-30T07:43:04;18.00;99.90
55213;DHT22;41083;52.932;6.674;2022-07-30T07:45:30;18.00;99.90
55213;DHT22;41083;52.932;6.674;2022-07-30T07:47:55;18.10;99.90
55213;DHT22;41083;52.932;6.674;2022-07-30T07:50:21;18.10;99.90
55213;DHT22;41083;52.932;6.674;2022-07-30T07:52:47;18.10;99.90
55213;DHT22;41083;52.932;6.674;2022-07-30T07:55:13;18.20;99.90
55213;DHT22;41083;52.932;6.674;2022-07-30T07:57:40;18.20;99.90
55213;DHT22;41083;52.932;6.674;2022-07-30T08:00:08;18.20;99.90
55213;DHT22;41083;52.932;6.674;2022-07-30T08:02:34;18.30;99.90
55213;DHT22;41083;52.932;6.674;2022-07-30T08:05:00;18.40;99.90
55213;DHT22;41083;52.932;6.674;2022-07-30T08:07:26;18.40;99.90
55213;DHT22;41083;52.932;6.674;2022-07-30T08:09:51;18.40;99.90
55213;DHT22;41083;52.932;6.674;2022-07-30T08:12:17;18.40;99.90
55213;DHT22;41083;52.932;6.674;2022-07-30T08:14:42;18.50;99.90
55213;DHT22;41083;52.932;6.674;2022-07-30T08:17:08;18.60;99.90
55213;DHT22;41083;52.932;6.674;2022-07-30T08:19:34;18.60;99.90
55213;DHT22;41083;52.932;6.674;2022-07-30T08:21:59;18.50;99.90
55213;DHT22;41083;52.932;6.674;2022-07-30T08:24:25;18.50;99.90
55213;DHT22;41083;52.932;6.674;2022-07-30T08:26:51;18.50;99.90
55213;DHT22;41083;52.932;6.674;2022-07-30T08:29:16;18.60;99.90
55213;DHT22;41083;52.932;6.674;2022-07-30T08:31:42;18.80;99.90
55213;DHT22;41083;52.932;6.674;2022-07-30T08:34:08;18.90;99.90
55213;DHT22;41083;52.932;6.674;2022-07-30T08:36:33;19.00;99.90
55213;DHT22;41083;52.932;6.674;2022-07-30T08:38:59;19.10;99.90
55213;DHT22;41083;52.932;6.674;2022-07-30T08:41:25;19.10;99.90
55213;DHT22;41083;52.932;6.674;2022-07-30T08:43:52;19.20;99.90
55213;DHT22;41083;52.932;6.674;2022-07-30T08:46:23;19.30;99.90
55213;DHT22;41083;52.932;6.674;2022-07-30T08:48:50;19.40;99.90
55213;DHT22;41083;52.932;6.674;2022-07-30T08:51:16;19.50;99.90
55213;DHT22;41083;52.932;6.674;2022-07-30T08:53:43;19.50;99.90
55213;DHT22;41083;52.932;6.674;2022-07-30T08:56:10;19.50;99.90
55213;DHT22;41083;52.932;6.674;2022-07-30T08:58:36;19.60;99.90
55213;DHT22;41083;52.932;6.674;2022-07-30T09:01:03;19.70;99.90
55213;DHT22;41083;52.932;6.674;2022-07-30T09:03:30;19.70;99.90
55213;DHT22;41083;52.932;6.674;2022-07-30T09:05:55;19.70;99.90
55213;DHT22;41083;52.932;6.674;2022-07-30T09:08:21;19.70;99.90
55213;DHT22;41083;52.932;6.674;2022-07-30T09:10:47;19.80;99.90
55213;DHT22;41083;52.932;6.674;2022-07-30T09:15:52;19.80;99.90
55213;DHT22;41083;52.932;6.674;2022-07-30T09:18:34;19.80;99.90
55213;DHT22;41083;52.932;6.674;2022-07-30T09:24:03;19.80;99.90
55213;DHT22;41083;52.932;6.674;2022-07-30T09:26:30;19.80;99.90
55213;DHT22;41083;52.932;6.674;2022-07-30T09:29:16;19.80;99.90
55213;DHT22;41083;52.932;6.674;2022-07-30T09:34:34;19.90;99.90
55213;DHT22;41083;52.932;6.674;2022-07-30T09:37:03;19.90;99.90
55213;DHT22;41083;52.932;6.674;2022-07-30T09:39:33;20.00;99.90
55213;DHT22;41083;52.932;6.674;2022-07-30T09:42:01;20.00;99.90
55213;DHT22;41083;52.932;6.674;2022-07-30T09:44:28;20.10;99.90
55213;DHT22;41083;52.932;6.674;2022-07-30T09:46:57;20.20;99.90
55213;DHT22;41083;52.932;6.674;2022-07-30T09:49:25;20.20;99.90
55213;DHT22;41083;52.932;6.674;2022-07-30T09:51:52;20.20;99.90
55213;DHT22;41083;52.932;6.674;2022-07-30T09:54:18;20.20;99.90
55213;DHT22;41083;52.932;6.674;2022-07-30T09:56:44;20.20;99.90
55213;DHT22;41083;52.932;6.674;2022-07-30T09:59:28;20.10;99.90
55213;DHT22;41083;52.932;6.674;2022-07-30T10:01:55;20.20;99.90
55213;DHT22;41083;52.932;6.674;2022-07-30T10:04:29;20.20;99.90
55213;DHT22;41083;52.932;6.674;2022-07-30T10:06:56;20.30;99.90
55213;DHT22;41083;52.932;6.674;2022-07-30T10:09:29;20.20;99.90
55213;DHT22;41083;52.932;6.674;2022-07-30T10:11:58;20.30;99.90
55213;DHT22;41083;52.932;6.674;2022-07-30T10:14:26;20.30;99.90
55213;DHT22;41083;52.932;6.674;2022-07-30T10:16:53;20.40;99.90
55213;DHT22;41083;52.932;6.674;2022-07-30T10:19:19;20.50;99.90
55213;DHT22;41083;52.932;6.674;2022-07-30T10:21:45;20.60;99.90
55213;DHT22;41083;52.932;6.674;2022-07-30T10:24:11;20.50;99.90
55213;DHT22;41083;52.932;6.674;2022-07-30T10:26:38;20.50;99.90
55213;DHT22;41083;52.932;6.674;2022-07-30T10:29:04;20.50;99.90
55213;DHT22;41083;52.932;6.674;2022-07-30T10:31:29;20.50;99.90
55213;DHT22;41083;52.932;6.674;2022-07-30T10:33:56;20.50;99.80
55213;DHT22;41083;52.932;6.674;2022-07-30T10:36:22;20.50;99.60
55213;DHT22;41083;52.932;6.674;2022-07-30T10:38:50;20.60;99.40
55213;DHT22;41083;52.932;6.674;2022-07-30T10:41:45;20.60;99.40
55213;DHT22;41083;52.932;6.674;2022-07-30T10:49:19;21.00;98.80
55213;DHT22;41083;52.932;6.674;2022-07-30T10:51:50;21.00;98.70
55213;DHT22;41083;52.932;6.674;2022-07-30T10:57:07;20.90;98.00
55213;DHT22;41083;52.932;6.674;2022-07-30T11:02:20;20.90;98.20
55213;DHT22;41083;52.932;6.674;2022-07-30T11:04:46;21.10;98.50
55213;DHT22;41083;52.932;6.674;2022-07-30T11:10:00;21.20;98.10
55213;DHT22;41083;52.932;6.674;2022-07-30T11:12:53;21.40;98.40
55213;DHT22;41083;52.932;6.674;2022-07-30T11:15:19;21.60;95.00
55213;DHT22;41083;52.932;6.674;2022-07-30T11:18:04;21.60;97.10
55213;DHT22;41083;52.932;6.674;2022-07-30T11:20:31;21.60;95.70
55213;DHT22;41083;52.932;6.674;2022-07-30T11:23:56;21.40;97.10
55213;DHT22;41083;52.932;6.674;2022-07-30T11:25:57;21.40;97.10
55213;DHT22;41083;52.932;6.674;2022-07-30T11:28:34;21.40;97.40
55213;DHT22;41083;52.932;6.674;2022-07-30T11:31:01;21.50;96.20
55213;DHT22;41083;52.932;6.674;2022-07-30T11:33:26;21.50;96.90
55213;DHT22;41083;52.932;6.674;2022-07-30T11:36:09;21.60;96.50
55213;DHT22;41083;52.932;6.674;2022-07-30T11:38:56;21.40;95.60
55213;DHT22;41083;52.932;6.674;2022-07-30T11:41:23;21.30;96.00
55213;DHT22;41083;52.932;6.674;2022-07-30T11:44:27;21.50;96.60
55213;DHT22;41083;52.932;6.674;2022-07-30T11:46:54;21.50;95.40
55213;DHT22;41083;52.932;6.674;2022-07-30T11:49:20;21.60;96.00
55213;DHT22;41083;52.932;6.674;2022-07-30T11:51:47;21.60;95.80
55213;DHT22;41083;52.932;6.674;2022-07-30T11:54:14;21.60;95.60
55213;DHT22;41083;52.932;6.674;2022-07-30T11:56:50;21.60;95.40
55213;DHT22;41083;52.932;6.674;2022-07-30T11:59:16;21.60;94.40
55213;DHT22;41083;52.932;6.674;2022-07-30T12:01:42;21.60;95.10
55213;DHT22;41083;52.932;6.674;2022-07-30T12:04:08;21.60;95.20
55213;DHT22;41083;52.932;6.674;2022-07-30T12:06:42;21.60;95.20
55213;DHT22;41083;52.932;6.674;2022-07-30T12:09:08;21.60;94.70
55213;DHT22;41083;52.932;6.674;2022-07-30T12:11:34;21.70;95.00
55213;DHT22;41083;52.932;6.674;2022-07-30T12:14:02;21.80;94.70
55213;DHT22;41083;52.932;6.674;2022-07-30T12:16:29;21.90;94.40
55213;DHT22;41083;52.932;6.674;2022-07-30T12:19:00;22.00;94.30
55213;DHT22;41083;52.932;6.674;2022-07-30T12:21:26;22.10;94.00
55213;DHT22;41083;52.932;6.674;2022-07-30T12:23:57;22.20;93.90
55213;DHT22;41083;52.932;6.674;2022-07-30T12:26:28;22.30;93.30
55213;DHT22;41083;52.932;6.674;2022-07-30T12:28:55;22.30;93.10
55213;DHT22;41083;52.932;6.674;2022-07-30T12:31:22;22.40;93.20
55213;DHT22;41083;52.932;6.674;2022-07-30T12:33:47;22.40;93.10
55213;DHT22;41083;52.932;6.674;2022-07-30T12:38:53;22.30;92.80
55213;DHT22;41083;52.932;6.674;2022-07-30T12:41:21;22.40;93.10
55213;DHT22;41083;52.932;6.674;2022-07-30T12:43:52;22.30;92.90
55213;DHT22;41083;52.932;6.674;2022-07-30T12:46:24;22.30;92.60
55213;DHT22;41083;52.932;6.674;2022-07-30T12:49:04;22.20;92.50
55213;DHT22;41083;52.932;6.674;2022-07-30T12:51:32;22.30;90.50
55213;DHT22;41083;52.932;6.674;2022-07-30T12:54:00;22.20;91.50
55213;DHT22;41083;52.932;6.674;2022-07-30T12:56:28;22.30;91.80
55213;DHT22;41083;52.932;6.674;2022-07-30T12:58:56;22.30;91.70
55213;DHT22;41083;52.932;6.674;2022-07-30T13:01:42;22.20;91.50
55213;DHT22;41083;52.932;6.674;2022-07-30T13:04:09;22.10;88.50
55213;DHT22;41083;52.932;6.674;2022-07-30T13:06:34;22.00;91.50
55213;DHT22;41083;52.932;6.674;2022-07-30T13:09:03;22.10;91.50
55213;DHT22;41083;52.932;6.674;2022-07-30T13:11:43;22.10;91.20
55213;DHT22;41083;52.932;6.674;2022-07-30T13:14:10;22.20;89.90
55213;DHT22;41083;52.932;6.674;2022-07-30T13:16:38;22.20;90.30
55213;DHT22;41083;52.932;6.674;2022-07-30T13:19:08;22.40;90.00
55213;DHT22;41083;52.932;6.674;2022-07-30T13:21:36;22.40;88.00
55213;DHT22;41083;52.932;6.674;2022-07-30T13:24:02;22.50;88.30
55213;DHT22;41083;52.932;6.674;2022-07-30T13:26:28;22.50;88.20
55213;DHT22;41083;52.932;6.674;2022-07-30T13:28:55;22.50;88.60
55213;DHT22;41083;52.932;6.674;2022-07-30T13:31:21;22.40;88.30
55213;DHT22;41083;52.932;6.674;2022-07-30T13:33:47;22.50;88.60
55213;DHT22;41083;52.932;6.674;2022-07-30T13:36:12;22.50;87.70
55213;DHT22;41083;52.932;6.674;2022-07-30T13:38:38;22.50;86.60
55213;DHT22;41083;52.932;6.674;2022-07-30T13:41:04;22.50;86.50
55213;DHT22;41083;52.932;6.674;2022-07-30T13:43:30;22.50;86.40
55213;DHT22;41083;52.932;6.674;2022-07-30T13:45:55;22.50;85.70
55213;DHT22;41083;52.932;6.674;2022-07-30T13:48:21;22.50;84.60
55213;DHT22;41083;52.932;6.674;2022-07-30T13:50:47;22.50;83.30
55213;DHT22;41083;52.932;6.674;2022-07-30T13:53:13;22.50;83.70
55213;DHT22;41083;52.932;6.674;2022-07-30T13:55:39;22.50;83.60
55213;DHT22;41083;52.932;6.674;2022-07-30T13:58:07;22.50;84.50
55213;DHT22;41083;52.932;6.674;2022-07-30T14:00:33;22.50;85.00
55213;DHT22;41083;52.932;6.674;2022-07-30T14:03:03;22.50;84.00
55213;DHT22;41083;52.932;6.674;2022-07-30T14:05:29;22.50;83.70
55213;DHT22;41083;52.932;6.674;2022-07-30T14:07:55;22.50;84.30
55213;DHT22;41083;52.932;6.674;2022-07-30T14:10:22;22.50;83.70
55213;DHT22;41083;52.932;6.674;2022-07-30T14:12:52;22.60;82.90
55213;DHT22;41083;52.932;6.674;2022-07-30T14:15:22;22.50;81.10
55213;DHT22;41083;52.932;6.674;2022-07-30T14:17:48;22.50;82.10
55213;DHT22;41083;52.932;6.674;2022-07-30T14:20:14;22.50;81.40
55213;DHT22;41083;52.932;6.674;2022-07-30T14:22:40;22.60;81.40
55213;DHT22;41083;52.932;6.674;2022-07-30T14:25:06;22.60;81.40
55213;DHT22;41083;52.932;6.674;2022-07-30T14:27:32;22.60;81.50
55213;DHT22;41083;52.932;6.674;2022-07-30T14:29:58;22.60;81.90
55213;DHT22;41083;52.932;6.674;2022-07-30T14:32:24;22.50;81.90
55213;DHT22;41083;52.932;6.674;2022-07-30T14:34:49;22.40;81.50
55213;DHT22;41083;52.932;6.674;2022-07-30T14:37:15;22.50;81.80
55213;DHT22;41083;52.932;6.674;2022-07-30T14:39:41;22.50;81.30
55213;DHT22;41083;52.932;6.674;2022-07-30T14:42:06;22.50;80.90
55213;DHT22;41083;52.932;6.674;2022-07-30T14:44:32;22.50;79.60
55213;DHT22;41083;52.932;6.674;2022-07-30T14:46:58;22.40;79.40
55213;DHT22;41083;52.932;6.674;2022-07-30T14:49:24;22.30;78.80
55213;DHT22;41083;52.932;6.674;2022-07-30T14:51:50;22.20;79.00
55213;DHT22;41083;52.932;6.674;2022-07-30T14:54:15;22.20;79.00
55213;DHT22;41083;52.932;6.674;2022-07-30T14:56:41;22.20;79.30
55213;DHT22;41083;52.932;6.674;2022-07-30T14:59:07;22.20;79.70
55213;DHT22;41083;52.932;6.674;2022-07-30T15:01:33;22.20;79.70
55213;DHT22;41083;52.932;6.674;2022-07-30T15:03:59;22.20;80.70
55213;DHT22;41083;52.932;6.674;2022-07-30T15:06:26;22.20;81.30
55213;DHT22;41083;52.932;6.674;2022-07-30T15:08:52;22.30;81.10
55213;DHT22;41083;52.932;6.674;2022-07-30T15:11:17;22.30;80.80
55213;DHT22;41083;52.932;6.674;2022-07-30T15:13:43;22.30;80.60
55213;DHT22;41083;52.932;6.674;2022-07-30T15:16:09;22.20;80.50
55213;DHT22;41083;52.932;6.674;2022-07-30T15:18:34;22.20;80.50
55213;DHT22;41083;52.932;6.674;2022-07-30T15:21:00;22.30;80.60
55213;DHT22;41083;52.932;6.674;2022-07-30T15:23:26;22.30;81.20
55213;DHT22;41083;52.932;6.674;2022-07-30T15:25:51;22.20;80.90
55213;DHT22;41083;52.932;6.674;2022-07-30T15:28:17;22.20;79.80
55213;DHT22;41083;52.932;6.674;2022-07-30T15:30:44;22.20;79.40
55213;DHT22;41083;52.932;6.674;2022-07-30T15:33:09;22.10;79.10
55213;DHT22;41083;52.932;6.674;2022-07-30T15:35:35;22.10;78.70
55213;DHT22;41083;52.932;6.674;2022-07-30T15:38:01;22.00;77.90
55213;DHT22;41083;52.932;6.674;2022-07-30T15:40:26;22.00;78.40
55213;DHT22;41083;52.932;6.674;2022-07-30T15:42:52;21.90;78.30
55213;DHT22;41083;52.932;6.674;2022-07-30T15:45:18;21.80;78.10
55213;DHT22;41083;52.932;6.674;2022-07-30T15:47:45;21.80;78.00
55213;DHT22;41083;52.932;6.674;2022-07-30T15:50:11;21.80;77.80
55213;DHT22;41083;52.932;6.674;2022-07-30T15:52:37;21.80;78.20
55213;DHT22;41083;52.932;6.674;2022-07-30T15:55:05;21.80;78.40
55213;DHT22;41083;52.932;6.674;2022-07-30T15:57:31;21.80;78.30